sensor_id;sensor_type;location;lat;lon;timestamp;pressure;altitude;pressure_sealevel;temperature;humidity
11808;BME280;5961;42.640;23.380;2023-02-17T00:01:11;94924.88;;;5.79;58.36
11808;BME280;5961;42.640;23.380;2023-02-17T00:03:38;94883.03;;;5.44;58.62
11808;BME280;5961;42.640;23.380;2023-02-17T00:06:06;94917.53;;;5.76;59.20
11808;BME280;5961;42.640;23.380;2023-02-17T00:08:33;94920.66;;;5.78;58.97
11808;BME280;5961;42.640;23.380;2023-02-17T00:11:01;94915.72;;;5.72;59.20
11808;BME280;5961;42.640;23.380;2023-02-17T00:13:28;94926.88;;;5.64;59.39
11808;BME280;5961;42.640;23.380;2023-02-17T00:15:55;94929.19;;;5.70;58.53
11808;BME280;5961;42.640;23.380;2023-02-17T00:18:22;94904.03;;;5.54;59.16
11808;BME280;5961;42.640;23.380;2023-02-17T00:20:49;94915.84;;;5.62;59.24
11808;BME280;5961;42.640;23.380;2023-02-17T00:23:15;94902.00;;;5.46;59.24
11808;BME280;5961;42.640;23.380;2023-02-17T00:25:42;94914.47;;;5.40;59.92
11808;BME280;5961;42.640;23.380;2023-02-17T00:28:10;94916.31;;;5.40;59.66
11808;BME280;5961;42.640;23.380;2023-02-17T00:30:37;94916.84;;;5.37;59.89
11808;BME280;5961;42.640;23.380;2023-02-17T00:33:04;94913.13;;;5.09;60.54
11808;BME280;5961;42.640;23.380;2023-02-17T00:35:31;94901.72;;;5.19;60.48
11808;BME280;5961;42.640;23.380;2023-02-17T00:37:58;94900.81;;;5.05;60.29
11808;BME280;5961;42.640;23.380;2023-02-17T00:40:24;94906.38;;;4.98;61.51
11808;BME280;5961;42.640;23.380;2023-02-17T00:42:51;94896.16;;;4.91;61.53
11808;BME280;5961;42.640;23.380;2023-02-17T00:45:20;94890.09;;;4.91;61.25
11808;BME280;5961;42.640;23.380;2023-02-17T00:47:47;94887.16;;;4.97;61.70
11808;BME280;5961;42.640;23.380;2023-02-17T00:50:14;94886.66;;;4.95;61.43
11808;BME280;5961;42.640;23.380;2023-02-17T00:52:41;94883.97;;;5.01;62.09
11808;BME280;5961;42.640;23.380;2023-02-17T00:55:07;94893.88;;;5.14;61.50
11808;BME280;5961;42.640;23.380;2023-02-17T00:57:34;94899.59;;;5.21;61.39
11808;BME280;5961;42.640;23.380;2023-02-17T01:00:01;94890.63;;;5.22;61.68
11808;BME280;5961;42.640;23.380;2023-02-17T01:02:30;94889.47;;;5.33;60.83
11808;BME280;5961;42.640;23.380;2023-02-17T01:04:56;94889.41;;;5.38;61.15
11808;BME280;5961;42.640;23.380;2023-02-17T01:07:23;94896.75;;;5.46;60.97
11808;BME280;5961;42.640;23.380;2023-02-17T01:09:50;94886.69;;;5.48;61.00
11808;BME280;5961;42.640;23.380;2023-02-17T01:12:16;94878.22;;;5.51;60.47
11808;BME280;5961;42.640;23.380;2023-02-17T01:14:43;94890.19;;;5.38;59.80
11808;BME280;5961;42.640;23.380;2023-02-17T01:17:10;94872.63;;;5.29;59.98
11808;BME280;5961;42.640;23.380;2023-02-17T01:19:38;94887.63;;;5.33;59.61
11808;BME280;5961;42.640;23.380;2023-02-17T01:22:05;94882.91;;;5.30;59.37
11808;BME280;5961;42.640;23.380;2023-02-17T01:24:31;94880.66;;;5.19;60.83
11808;BME280;5961;42.640;23.380;2023-02-17T01:26:58;94872.09;;;5.03;61.16
11808;BME280;5961;42.640;23.380;2023-02-17T01:29:25;94879.72;;;5.05;61.84
11808;BME280;5961;42.640;23.380;2023-02-17T01:31:52;94867.38;;;5.00;62.28
11808;BME280;5961;42.640;23.380;2023-02-17T01:34:19;94867.13;;;4.96;62.07
11808;BME280;5961;42.640;23.380;2023-02-17T01:36:47;94867.69;;;4.93;61.89
11808;BME280;5961;42.640;23.380;2023-02-17T01:39:14;94855.38;;;4.89;62.32
11808;BME280;5961;42.640;23.380;2023-02-17T01:41:41;94880.44;;;4.81;63.16
11808;BME280;5961;42.640;23.380;2023-02-17T01:44:11;94872.03;;;4.79;63.38
11808;BME280;5961;42.640;23.380;2023-02-17T01:46:39;94863.06;;;4.80;63.19
11808;BME280;5961;42.640;23.380;2023-02-17T01:49:16;94857.38;;;4.63;63.80
11808;BME280;5961;42.640;23.380;2023-02-17T01:51:48;94864.72;;;4.71;64.15
11808;BME280;5961;42.640;23.380;2023-02-17T01:54:19;94869.22;;;4.66;64.76
11808;BME280;5961;42.640;23.380;2023-02-17T01:56:47;94851.66;;;4.56;64.27
11808;BME280;5961;42.640;23.380;2023-02-17T01:59:17;94862.34;;;4.70;64.71
11808;BME280;5961;42.640;23.380;2023-02-17T02:01:46;94857.94;;;4.60;64.07
11808;BME280;5961;42.640;23.380;2023-02-17T02:04:16;94863.63;;;4.77;63.74
11808;BME280;5961;42.640;23.380;2023-02-17T02:06:46;94856.84;;;4.66;63.79
11808;BME280;5961;42.640;23.380;2023-02-17T02:09:16;94867.06;;;4.73;64.11
11808;BME280;5961;42.640;23.380;2023-02-17T02:11:47;94857.38;;;4.68;64.26
11808;BME280;5961;42.640;23.380;2023-02-17T02:14:13;94862.16;;;4.61;64.37
11808;BME280;5961;42.640;23.380;2023-02-17T02:16:46;94854.25;;;4.61;64.85
11808;BME280;5961;42.640;23.380;2023-02-17T02:25:09;94850.69;;;4.42;65.67
11808;BME280;5961;42.640;23.380;2023-02-17T02:27:49;94853.50;;;4.17;66.25
11808;BME280;5961;42.640;23.380;2023-02-17T02:30:49;94855.13;;;4.08;67.16
11808;BME280;5961;42.640;23.380;2023-02-17T02:33:23;94854.03;;;4.14;67.54
11808;BME280;5961;42.640;23.380;2023-02-17T02:35:57;94852.72;;;4.16;67.13
11808;BME280;5961;42.640;23.380;2023-02-17T02:38:31;94857.72;;;4.13;67.63
11808;BME280;5961;42.640;23.380;2023-02-17T02:41:04;94854.59;;;4.06;68.01
11808;BME280;5961;42.640;23.380;2023-02-17T02:43:33;94855.66;;;4.05;68.21
11808;BME280;5961;42.640;23.380;2023-02-17T02:46:00;94863.47;;;4.15;67.70
11808;BME280;5961;42.640;23.380;2023-02-17T02:48:28;94858.28;;;4.05;68.07
11808;BME280;5961;42.640;23.380;2023-02-17T02:51:14;94861.47;;;4.02;68.73
11808;BME280;5961;42.640;23.380;2023-02-17T02:54:09;94862.78;;;3.99;69.11
11808;BME280;5961;42.640;23.380;2023-02-17T02:56:46;94865.97;;;3.91;69.42
11808;BME280;5961;42.640;23.380;2023-02-17T02:59:23;94861.47;;;4.02;69.02
11808;BME280;5961;42.640;23.380;2023-02-17T03:02:02;94863.31;;;4.01;69.46
11808;BME280;5961;42.640;23.380;2023-02-17T03:04:36;94864.59;;;4.04;68.97
11808;BME280;5961;42.640;23.380;2023-02-17T03:07:06;94868.81;;;4.05;69.13
11808;BME280;5961;42.640;23.380;2023-02-17T03:09:35;94866.22;;;3.95;69.34
11808;BME280;5961;42.640;23.380;2023-02-17T03:12:02;94866.78;;;3.81;69.91
11808;BME280;5961;42.640;23.380;2023-02-17T03:14:30;94867.06;;;3.85;69.94
11808;BME280;5961;42.640;23.380;2023-02-17T03:17:01;94854.19;;;3.83;70.43
11808;BME280;5961;42.640;23.380;2023-02-17T03:19:28;94863.09;;;3.87;69.57
11808;BME280;5961;42.640;23.380;2023-02-17T03:22:00;94853.09;;;3.90;70.03
11808;BME280;5961;42.640;23.380;2023-02-17T03:24:31;94856.22;;;3.97;69.29
11808;BME280;5961;42.640;23.380;2023-02-17T03:26:59;94859.91;;;3.96;69.81
11808;BME280;5961;42.640;23.380;2023-02-17T03:29:25;94851.50;;;3.99;69.69
11808;BME280;5961;42.640;23.380;2023-02-17T03:31:52;94855.16;;;3.98;69.76
11808;BME280;5961;42.640;23.380;2023-02-17T03:34:19;94868.56;;;3.96;69.78
11808;BME280;5961;42.640;23.380;2023-02-17T03:36:46;94862.25;;;3.97;69.98
11808;BME280;5961;42.640;23.380;2023-02-17T03:39:14;94864.34;;;4.00;69.51
11808;BME280;5961;42.640;23.380;2023-02-17T03:41:41;94867.75;;;4.06;69.54
11808;BME280;5961;42.640;23.380;2023-02-17T03:44:08;94869.81;;;4.09;69.08
11808;BME280;5961;42.640;23.380;2023-02-17T03:46:37;94858.28;;;4.05;69.65
11808;BME280;5961;42.640;23.380;2023-02-17T03:49:04;94859.88;;;4.01;68.90
11808;BME280;5961;42.640;23.380;2023-02-17T03:51:31;94858.56;;;4.03;69.03
11808;BME280;5961;42.640;23.380;2023-02-17T03:53:57;94852.03;;;3.96;69.19
11808;BME280;5961;42.640;23.380;2023-02-17T03:56:25;94855.75;;;3.84;70.25
11808;BME280;5961;42.640;23.380;2023-02-17T03:58:52;94853.66;;;3.86;69.98
11808;BME280;5961;42.640;23.380;2023-02-17T04:01:19;94857.06;;;3.82;70.44
11808;BME280;5961;42.640;23.380;2023-02-17T04:03:46;94851.31;;;3.80;70.80
11808;BME280;5961;42.640;23.380;2023-02-17T04:06:13;94841.66;;;3.65;70.48
11808;BME280;5961;42.640;23.380;2023-02-17T04:08:40;94856.34;;;3.71;71.20
11808;BME280;5961;42.640;23.380;2023-02-17T04:11:08;94854.25;;;3.68;71.17
11808;BME280;5961;42.640;23.380;2023-02-17T04:13:37;94860.53;;;3.77;70.71
11808;BME280;5961;42.640;23.380;2023-02-17T04:16:05;94866.56;;;3.73;71.17
11808;BME280;5961;42.640;23.380;2023-02-17T04:18:33;94871.31;;;3.71;71.41
11808;BME280;5961;42.640;23.380;2023-02-17T04:21:00;94855.25;;;3.72;71.69
11808;BME280;5961;42.640;23.380;2023-02-17T04:23:27;94853.72;;;3.66;71.96
11808;BME280;5961;42.640;23.380;2023-02-17T04:25:54;94853.97;;;3.70;72.12
11808;BME280;5961;42.640;23.380;2023-02-17T04:28:20;94862.38;;;3.67;71.80
11808;BME280;5961;42.640;23.380;2023-02-17T04:30:49;94870.00;;;3.73;71.52
11808;BME280;5961;42.640;23.380;2023-02-17T04:33:16;94860.28;;;3.74;71.97
11808;BME280;5961;42.640;23.380;2023-02-17T04:35:43;94864.38;;;3.90;71.16
11808;BME280;5961;42.640;23.380;2023-02-17T04:38:10;94863.63;;;3.90;70.84
11808;BME280;5961;42.640;23.380;2023-02-17T04:40:37;94863.09;;;3.93;71.19
11808;BME280;5961;42.640;23.380;2023-02-17T04:43:04;94864.63;;;3.94;71.17
11808;BME280;5961;42.640;23.380;2023-02-17T04:45:31;94859.91;;;3.91;70.71
11808;BME280;5961;42.640;23.380;2023-02-17T04:47:59;94862.00;;;3.94;71.32
11808;BME280;5961;42.640;23.380;2023-02-17T04:50:26;94855.41;;;4.01;70.83
11808;BME280;5961;42.640;23.380;2023-02-17T04:52:53;94863.28;;;4.06;71.04
11808;BME280;5961;42.640;23.380;2023-02-17T04:55:20;94873.25;;;4.09;71.05
11808;BME280;5961;42.640;23.380;2023-02-17T04:57:46;94864.31;;;4.10;70.53
11808;BME280;5961;42.640;23.380;2023-02-17T05:00:13;94870.38;;;4.11;70.40
11808;BME280;5961;42.640;23.380;2023-02-17T05:02:40;94867.28;;;3.99;70.68
11808;BME280;5961;42.640;23.380;2023-02-17T05:05:08;94872.53;;;3.99;70.73
11808;BME280;5961;42.640;23.380;2023-02-17T05:07:39;94869.88;;;4.04;71.04
11808;BME280;5961;42.640;23.380;2023-02-17T05:10:07;94883.53;;;4.06;70.95
11808;BME280;5961;42.640;23.380;2023-02-17T05:12:33;94888.00;;;4.10;70.68
11808;BME280;5961;42.640;23.380;2023-02-17T05:15:00;94884.56;;;4.10;70.64
11808;BME280;5961;42.640;23.380;2023-02-17T05:17:27;94875.63;;;4.11;70.46
11808;BME280;5961;42.640;23.380;2023-02-17T05:19:54;94885.31;;;4.15;70.72
11808;BME280;5961;42.640;23.380;2023-02-17T05:22:22;94875.09;;;4.14;70.14
11808;BME280;5961;42.640;23.380;2023-02-17T05:24:49;94893.47;;;4.19;70.29
11808;BME280;5961;42.640;23.380;2023-02-17T05:27:15;94911.38;;;4.17;69.97
11808;BME280;5961;42.640;23.380;2023-02-17T05:29:42;94898.19;;;4.22;70.42
11808;BME280;5961;42.640;23.380;2023-02-17T05:32:09;94900.28;;;4.25;69.90
11808;BME280;5961;42.640;23.380;2023-02-17T05:34:36;94905.25;;;4.26;69.28
11808;BME280;5961;42.640;23.380;2023-02-17T05:37:03;94890.00;;;4.23;68.73
11808;BME280;5961;42.640;23.380;2023-02-17T05:39:31;94908.97;;;4.25;68.75
11808;BME280;5961;42.640;23.380;2023-02-17T05:41:58;94907.13;;;4.26;69.59
11808;BME280;5961;42.640;23.380;2023-02-17T05:44:24;94905.50;;;4.30;69.23
11808;BME280;5961;42.640;23.380;2023-02-17T05:46:51;94912.34;;;4.31;69.47
11808;BME280;5961;42.640;23.380;2023-02-17T05:49:18;94922.84;;;4.36;69.06
11808;BME280;5961;42.640;23.380;2023-02-17T05:51:44;94923.94;;;4.25;68.75
11808;BME280;5961;42.640;23.380;2023-02-17T05:54:11;94919.19;;;4.32;68.75
11808;BME280;5961;42.640;23.380;2023-02-17T05:56:39;94927.63;;;4.29;69.29
11808;BME280;5961;42.640;23.380;2023-02-17T05:59:06;94936.00;;;4.36;69.51
11808;BME280;5961;42.640;23.380;2023-02-17T06:01:32;94918.13;;;4.33;68.76
11808;BME280;5961;42.640;23.380;2023-02-17T06:03:59;94922.03;;;4.40;68.74
11808;BME280;5961;42.640;23.380;2023-02-17T06:06:26;94916.03;;;4.35;69.36
11808;BME280;5961;42.640;23.380;2023-02-17T06:08:52;94928.84;;;4.41;68.98
11808;BME280;5961;42.640;23.380;2023-02-17T06:11:19;94916.56;;;4.32;69.01
11808;BME280;5961;42.640;23.380;2023-02-17T06:13:47;94929.69;;;4.37;68.95
11808;BME280;5961;42.640;23.380;2023-02-17T06:16:14;94932.81;;;4.44;69.43
11808;BME280;5961;42.640;23.380;2023-02-17T06:18:40;94935.41;;;4.49;69.75
11808;BME280;5961;42.640;23.380;2023-02-17T06:21:07;94925.69;;;4.50;68.93
11808;BME280;5961;42.640;23.380;2023-02-17T06:23:34;94930.94;;;4.50;68.40
11808;BME280;5961;42.640;23.380;2023-02-17T06:26:00;94931.69;;;4.55;68.85
11808;BME280;5961;42.640;23.380;2023-02-17T06:28:27;94931.66;;;4.60;68.61
11808;BME280;5961;42.640;23.380;2023-02-17T06:30:55;94930.63;;;4.56;68.98
11808;BME280;5961;42.640;23.380;2023-02-17T06:33:22;94915.16;;;4.50;69.29
11808;BME280;5961;42.640;23.380;2023-02-17T06:35:49;94938.19;;;4.68;69.30
11808;BME280;5961;42.640;23.380;2023-02-17T06:38:16;94947.13;;;4.72;68.92
11808;BME280;5961;42.640;23.380;2023-02-17T06:40:43;94933.19;;;4.71;69.25
11808;BME280;5961;42.640;23.380;2023-02-17T06:43:10;94943.16;;;4.74;68.41
11808;BME280;5961;42.640;23.380;2023-02-17T06:45:36;94949.44;;;4.78;67.75
11808;BME280;5961;42.640;23.380;2023-02-17T06:48:05;94945.25;;;4.77;67.07
11808;BME280;5961;42.640;23.380;2023-02-17T06:50:31;94945.50;;;4.76;68.20
11808;BME280;5961;42.640;23.380;2023-02-17T06:52:58;94943.72;;;4.71;68.27
11808;BME280;5961;42.640;23.380;2023-02-17T06:55:25;94932.16;;;4.67;68.62
11808;BME280;5961;42.640;23.380;2023-02-17T06:57:51;94963.16;;;4.80;68.93
11808;BME280;5961;42.640;23.380;2023-02-17T07:00:19;94959.44;;;4.81;69.33
11808;BME280;5961;42.640;23.380;2023-02-17T07:02:46;94950.47;;;4.82;69.90
11808;BME280;5961;42.640;23.380;2023-02-17T07:05:14;94943.16;;;4.74;70.40
11808;BME280;5961;42.640;23.380;2023-02-17T07:07:41;94950.19;;;4.89;69.78
11808;BME280;5961;42.640;23.380;2023-02-17T07:10:08;94965.69;;;4.90;69.90
11808;BME280;5961;42.640;23.380;2023-02-17T07:12:35;94966.19;;;4.97;70.10
11808;BME280;5961;42.640;23.380;2023-02-17T07:15:02;94962.22;;;5.00;70.40
11808;BME280;5961;42.640;23.380;2023-02-17T07:17:30;94948.53;;;4.98;69.77
11808;BME280;5961;42.640;23.380;2023-02-17T07:19:57;94962.97;;;5.06;69.85
11808;BME280;5961;42.640;23.380;2023-02-17T07:22:25;94970.00;;;5.15;69.83
11808;BME280;5961;42.640;23.380;2023-02-17T07:24:51;94966.28;;;5.21;69.57
11808;BME280;5961;42.640;23.380;2023-02-17T07:27:18;94951.81;;;5.19;69.19
11808;BME280;5961;42.640;23.380;2023-02-17T07:29:45;94962.25;;;5.29;69.21
11808;BME280;5961;42.640;23.380;2023-02-17T07:32:11;94979.03;;;5.38;68.40
11808;BME280;5961;42.640;23.380;2023-02-17T07:34:38;94970.31;;;5.42;69.23
11808;BME280;5961;42.640;23.380;2023-02-17T07:37:05;94976.06;;;5.49;68.82
11808;BME280;5961;42.640;23.380;2023-02-17T07:39:33;94981.03;;;5.51;68.51
11808;BME280;5961;42.640;23.380;2023-02-17T07:42:00;94977.06;;;5.53;68.12
11808;BME280;5961;42.640;23.380;2023-02-17T07:44:29;94980.22;;;5.56;68.61
11808;BME280;5961;42.640;23.380;2023-02-17T07:46:56;94980.44;;;5.59;67.90
11808;BME280;5961;42.640;23.380;2023-02-17T07:49:22;94976.19;;;5.63;68.47
11808;BME280;5961;42.640;23.380;2023-02-17T07:51:49;94980.59;;;5.73;68.23
11808;BME280;5961;42.640;23.380;2023-02-17T07:54:16;94984.25;;;5.77;67.88
11808;BME280;5961;42.640;23.380;2023-02-17T07:56:44;94979.97;;;5.86;66.74
11808;BME280;5961;42.640;23.380;2023-02-17T07:59:12;94963.84;;;5.87;66.84
11808;BME280;5961;42.640;23.380;2023-02-17T08:01:39;94967.53;;;5.91;67.13
11808;BME280;5961;42.640;23.380;2023-02-17T08:04:05;94966.09;;;5.99;67.29
11808;BME280;5961;42.640;23.380;2023-02-17T08:06:32;94981.94;;;5.99;67.29
11808;BME280;5961;42.640;23.380;2023-02-17T08:08:59;94974.97;;;6.08;67.59
11808;BME280;5961;42.640;23.380;2023-02-17T08:11:44;94965.38;;;5.93;67.33
11808;BME280;5961;42.640;23.380;2023-02-17T08:14:29;94984.88;;;6.21;67.15
11808;BME280;5961;42.640;23.380;2023-02-17T08:16:56;94976.16;;;6.21;66.56
11808;BME280;5961;42.640;23.380;2023-02-17T08:19:23;94981.34;;;6.31;67.44
11808;BME280;5961;42.640;23.380;2023-02-17T08:21:50;94976.28;;;6.34;67.45
11808;BME280;5961;42.640;23.380;2023-02-17T08:24:17;94964.81;;;6.20;67.20
11808;BME280;5961;42.640;23.380;2023-02-17T08:26:47;94984.84;;;6.45;67.00
11808;BME280;5961;42.640;23.380;2023-02-17T08:29:14;94970.88;;;6.44;66.92
11808;BME280;5961;42.640;23.380;2023-02-17T08:31:41;94984.44;;;6.56;66.32
11808;BME280;5961;42.640;23.380;2023-02-17T08:34:10;94979.31;;;6.65;66.18
11808;BME280;5961;42.640;23.380;2023-02-17T08:36:37;94981.34;;;6.73;66.24
11808;BME280;5961;42.640;23.380;2023-02-17T08:39:08;94986.75;;;6.82;65.48
11808;BME280;5961;42.640;23.380;2023-02-17T08:41:37;94978.97;;;6.90;65.43
11808;BME280;5961;42.640;23.380;2023-02-17T08:44:08;94983.91;;;6.97;65.33
11808;BME280;5961;42.640;23.380;2023-02-17T08:46:36;94980.91;;;7.03;64.70
11808;BME280;5961;42.640;23.380;2023-02-17T08:49:03;94970.75;;;7.10;63.94
11808;BME280;5961;42.640;23.380;2023-02-17T08:51:30;94972.81;;;7.13;63.52
11808;BME280;5961;42.640;23.380;2023-02-17T08:53:58;94971.03;;;7.28;62.83
11808;BME280;5961;42.640;23.380;2023-02-17T08:56:27;94965.81;;;7.23;62.38
11808;BME280;5961;42.640;23.380;2023-02-17T08:58:54;94980.28;;;7.44;62.19
11808;BME280;5961;42.640;23.380;2023-02-17T09:01:22;94978.84;;;7.51;61.79
11808;BME280;5961;42.640;23.380;2023-02-17T09:03:51;94995.16;;;7.58;60.44
11808;BME280;5961;42.640;23.380;2023-02-17T09:06:18;94978.28;;;7.68;60.01
11808;BME280;5961;42.640;23.380;2023-02-17T09:08:45;94948.28;;;7.59;59.55
11808;BME280;5961;42.640;23.380;2023-02-17T09:11:12;94971.94;;;7.83;59.27
11808;BME280;5961;42.640;23.380;2023-02-17T09:13:40;94940.66;;;7.71;58.96
11808;BME280;5961;42.640;23.380;2023-02-17T09:16:06;94970.91;;;7.97;58.76
11808;BME280;5961;42.640;23.380;2023-02-17T09:18:34;94975.63;;;8.14;58.99
11808;BME280;5961;42.640;23.380;2023-02-17T09:21:05;94974.25;;;8.16;58.90
11808;BME280;5961;42.640;23.380;2023-02-17T09:23:32;94968.22;;;8.30;58.48
11808;BME280;5961;42.640;23.380;2023-02-17T09:26:02;94964.88;;;8.38;58.71
11808;BME280;5961;42.640;23.380;2023-02-17T09:28:30;94965.53;;;8.43;58.04
11808;BME280;5961;42.640;23.380;2023-02-17T09:30:56;94966.41;;;8.52;57.95
11808;BME280;5961;42.640;23.380;2023-02-17T09:33:23;94970.75;;;8.62;57.71
11808;BME280;5961;42.640;23.380;2023-02-17T09:35:51;94969.47;;;8.73;56.66
11808;BME280;5961;42.640;23.380;2023-02-17T09:38:18;94960.31;;;8.79;56.39
11808;BME280;5961;42.640;23.380;2023-02-17T09:40:46;94968.53;;;8.91;55.85
11808;BME280;5961;42.640;23.380;2023-02-17T09:43:15;94962.53;;;8.99;53.58
11808;BME280;5961;42.640;23.380;2023-02-17T09:45:46;94961.00;;;9.07;53.67
11808;BME280;5961;42.640;23.380;2023-02-17T09:48:16;94958.47;;;9.15;54.04
11808;BME280;5961;42.640;23.380;2023-02-17T09:50:48;94955.38;;;9.22;54.50
11808;BME280;5961;42.640;23.380;2023-02-17T09:53:24;94966.34;;;9.29;54.11
11808;BME280;5961;42.640;23.380;2023-02-17T09:55:56;94957.19;;;9.35;53.98
11808;BME280;5961;42.640;23.380;2023-02-17T09:58:27;94950.53;;;9.46;52.93
11808;BME280;5961;42.640;23.380;2023-02-17T10:00:59;94942.78;;;9.50;53.04
11808;BME280;5961;42.640;23.380;2023-02-17T10:03:30;94953.63;;;9.62;52.30
11808;BME280;5961;42.640;23.380;2023-02-17T10:06:10;94951.31;;;9.69;52.03
11808;BME280;5961;42.640;23.380;2023-02-17T10:08:42;94956.06;;;9.80;47.24
11808;BME280;5961;42.640;23.380;2023-02-17T10:11:18;94947.84;;;9.90;46.05
11808;BME280;5961;42.640;23.380;2023-02-17T10:13:49;94936.94;;;10.01;42.43
11808;BME280;5961;42.640;23.380;2023-02-17T10:16:20;94939.06;;;10.12;39.41
11808;BME280;5961;42.640;23.380;2023-02-17T10:18:53;94946.28;;;10.20;38.76
11808;BME280;5961;42.640;23.380;2023-02-17T10:21:26;94933.22;;;10.32;38.80
11808;BME280;5961;42.640;23.380;2023-02-17T10:23:55;94939.53;;;10.54;37.58
11808;BME280;5961;42.640;23.380;2023-02-17T10:26:29;94927.03;;;10.54;37.22
11808;BME280;5961;42.640;23.380;2023-02-17T10:29:03;94927.97;;;10.67;37.11
11808;BME280;5961;42.640;23.380;2023-02-17T10:31:41;94918.13;;;10.76;36.20
11808;BME280;5961;42.640;23.380;2023-02-17T10:34:13;94909.22;;;10.80;36.49
11808;BME280;5961;42.640;23.380;2023-02-17T10:36:49;94894.50;;;10.83;36.96
11808;BME280;5961;42.640;23.380;2023-02-17T10:39:31;94920.97;;;10.96;36.00
11808;BME280;5961;42.640;23.380;2023-02-17T10:42:00;94899.03;;;10.91;35.38
11808;BME280;5961;42.640;23.380;2023-02-17T10:44:30;94892.78;;;11.04;35.63
11808;BME280;5961;42.640;23.380;2023-02-17T10:47:02;94898.44;;;11.11;35.15
11808;BME280;5961;42.640;23.380;2023-02-17T10:49:31;94900.63;;;11.18;34.98
11808;BME280;5961;42.640;23.380;2023-02-17T10:52:00;94895.59;;;11.16;34.80
11808;BME280;5961;42.640;23.380;2023-02-17T10:54:33;94891.22;;;11.29;34.92
11808;BME280;5961;42.640;23.380;2023-02-17T10:57:02;94890.75;;;11.35;35.38
11808;BME280;5961;42.640;23.380;2023-02-17T10:59:33;94881.66;;;11.45;35.13
11808;BME280;5961;42.640;23.380;2023-02-17T11:02:15;94885.84;;;11.54;34.12
11808;BME280;5961;42.640;23.380;2023-02-17T11:04:43;94897.72;;;11.66;34.33
11808;BME280;5961;42.640;23.380;2023-02-17T11:07:11;94925.16;;;11.75;34.08
11808;BME280;5961;42.640;23.380;2023-02-17T11:09:46;94898.16;;;11.85;33.53
11808;BME280;5961;42.640;23.380;2023-02-17T11:12:15;94862.16;;;11.79;33.82
11808;BME280;5961;42.640;23.380;2023-02-17T11:14:44;94876.47;;;12.03;33.64
11808;BME280;5961;42.640;23.380;2023-02-17T11:17:13;94881.09;;;12.15;33.58
11808;BME280;5961;42.640;23.380;2023-02-17T11:19:53;94896.44;;;12.27;33.12
11808;BME280;5961;42.640;23.380;2023-02-17T11:22:34;94888.72;;;12.34;32.97
11808;BME280;5961;42.640;23.380;2023-02-17T11:25:06;94904.00;;;12.45;33.34
11808;BME280;5961;42.640;23.380;2023-02-17T11:27:33;94860.25;;;12.46;34.04
11808;BME280;5961;42.640;23.380;2023-02-17T11:30:08;94882.13;;;12.60;33.50
11808;BME280;5961;42.640;23.380;2023-02-17T11:32:43;94897.09;;;12.74;33.23
11808;BME280;5961;42.640;23.380;2023-02-17T11:35:21;94872.38;;;12.85;32.94
11808;BME280;5961;42.640;23.380;2023-02-17T11:37:49;94881.09;;;12.94;32.76
11808;BME280;5961;42.640;23.380;2023-02-17T11:40:24;94879.13;;;13.03;31.80
11808;BME280;5961;42.640;23.380;2023-02-17T11:42:56;94866.66;;;13.16;32.58
11808;BME280;5961;42.640;23.380;2023-02-17T11:45:25;94858.31;;;13.17;32.86
11808;BME280;5961;42.640;23.380;2023-02-17T11:48:25;94865.53;;;13.38;32.88
11808;BME280;5961;42.640;23.380;2023-02-17T11:50:59;94856.19;;;13.44;32.65
11808;BME280;5961;42.640;23.380;2023-02-17T11:53:40;94859.22;;;13.54;32.73
11808;BME280;5961;42.640;23.380;2023-02-17T11:56:16;94851.59;;;13.65;33.08
11808;BME280;5961;42.640;23.380;2023-02-17T11:58:55;94841.72;;;13.45;32.03
11808;BME280;5961;42.640;23.380;2023-02-17T12:01:37;94855.16;;;13.81;31.74
11808;BME280;5961;42.640;23.380;2023-02-17T12:04:23;94852.84;;;13.92;32.15
11808;BME280;5961;42.640;23.380;2023-02-17T12:07:05;94867.97;;;14.00;32.52
11808;BME280;5961;42.640;23.380;2023-02-17T12:09:44;94863.97;;;14.06;32.63
11808;BME280;5961;42.640;23.380;2023-02-17T12:12:21;94846.72;;;14.03;32.12
11808;BME280;5961;42.640;23.380;2023-02-17T12:15:12;94846.16;;;14.10;32.24
11808;BME280;5961;42.640;23.380;2023-02-17T12:17:50;94835.03;;;14.20;32.04
11808;BME280;5961;42.640;23.380;2023-02-17T12:20:40;94816.09;;;14.25;32.31
11808;BME280;5961;42.640;23.380;2023-02-17T12:23:34;94822.13;;;14.46;32.42
11808;BME280;5961;42.640;23.380;2023-02-17T12:26:13;94824.34;;;14.56;31.74
11808;BME280;5961;42.640;23.380;2023-02-17T12:28:54;94839.56;;;14.68;31.55
11808;BME280;5961;42.640;23.380;2023-02-17T12:31:40;94833.56;;;14.71;31.37
11808;BME280;5961;42.640;23.380;2023-02-17T12:34:17;94806.28;;;14.81;31.44
11808;BME280;5961;42.640;23.380;2023-02-17T12:36:46;94804.56;;;15.01;30.98
11808;BME280;5961;42.640;23.380;2023-02-17T12:39:17;94807.63;;;15.15;30.85
11808;BME280;5961;42.640;23.380;2023-02-17T12:41:50;94812.50;;;15.25;30.27
11808;BME280;5961;42.640;23.380;2023-02-17T12:44:23;94801.31;;;15.35;30.14
11808;BME280;5961;42.640;23.380;2023-02-17T12:46:52;94803.47;;;15.45;29.96
11808;BME280;5961;42.640;23.380;2023-02-17T12:49:24;94798.31;;;15.52;29.69
11808;BME280;5961;42.640;23.380;2023-02-17T12:51:54;94801.34;;;15.66;29.33
11808;BME280;5961;42.640;23.380;2023-02-17T12:54:25;94794.34;;;15.77;29.35
11808;BME280;5961;42.640;23.380;2023-02-17T12:57:04;94797.81;;;15.93;29.08
11808;BME280;5961;42.640;23.380;2023-02-17T12:59:36;94754.63;;;15.99;28.81
11808;BME280;5961;42.640;23.380;2023-02-17T13:02:06;94784.34;;;16.40;28.64
11808;BME280;5961;42.640;23.380;2023-02-17T13:04:35;94786.47;;;16.51;28.25
11808;BME280;5961;42.640;23.380;2023-02-17T13:07:14;94785.81;;;16.73;28.10
11808;BME280;5961;42.640;23.380;2023-02-17T13:09:45;94777.06;;;16.95;27.56
11808;BME280;5961;42.640;23.380;2023-02-17T13:12:38;94778.19;;;17.13;27.25
11808;BME280;5961;42.640;23.380;2023-02-17T13:15:29;94794.41;;;17.39;26.57
11808;BME280;5961;42.640;23.380;2023-02-17T13:17:57;94783.69;;;17.62;26.49
11808;BME280;5961;42.640;23.380;2023-02-17T13:20:41;94778.34;;;17.85;26.41
11808;BME280;5961;42.640;23.380;2023-02-17T13:23:11;94793.69;;;18.07;26.00
11808;BME280;5961;42.640;23.380;2023-02-17T13:25:39;94737.75;;;17.93;25.29
11808;BME280;5961;42.640;23.380;2023-02-17T13:28:18;94777.16;;;18.35;24.98